sensor_id;sensor_type;location;lat;lon;timestamp;pressure;altitude;pressure_sealevel;temperature
67758;BMP180;54562;47.620;18.786;2022-08-19T00:00:24;98052.60;;;25.60
67758;BMP180;54562;47.620;18.786;2022-08-19T00:03:34;98052.80;;;25.50
67758;BMP180;54562;47.620;18.786;2022-08-19T00:06:45;98053.60;;;25.50
67758;BMP180;54562;47.620;18.786;2022-08-19T00:09:53;98050.20;;;25.40
67758;BMP180;54562;47.620;18.786;2022-08-19T00:13:02;98037.40;;;25.40
67758;BMP180;54562;47.620;18.786;2022-08-19T00:16:11;98034.00;;;25.36
67758;BMP180;54562;47.620;18.786;2022-08-19T00:19:19;98039.20;;;25.30
67758;BMP180;54562;47.620;18.786;2022-08-19T00:22:27;98038.60;;;25.22
67758;BMP180;54562;47.620;18.786;2022-08-19T00:25:36;98033.00;;;25.20
67758;BMP180;54562;47.620;18.786;2022-08-19T00:28:44;98033.80;;;25.10
67758;BMP180;54562;47.620;18.786;2022-08-19T00:31:55;98032.60;;;25.10
67758;BMP180;54562;47.620;18.786;2022-08-19T00:35:06;98026.80;;;25.10
67758;BMP180;54562;47.620;18.786;2022-08-19T00:38:14;98029.20;;;25.00
67758;BMP180;54562;47.620;18.786;2022-08-19T00:41:43;98030.80;;;25.00
67758;BMP180;54562;47.620;18.786;2022-08-19T00:44:53;98027.00;;;25.00
67758;BMP180;54562;47.620;18.786;2022-08-19T00:48:02;98026.60;;;24.90
67758;BMP180;54562;47.620;18.786;2022-08-19T00:51:21;98024.00;;;24.90
67758;BMP180;54562;47.620;18.786;2022-08-19T00:54:30;98027.40;;;24.84
67758;BMP180;54562;47.620;18.786;2022-08-19T00:57:43;98024.20;;;24.80
67758;BMP180;54562;47.620;18.786;2022-08-19T01:00:57;98025.80;;;24.78
67758;BMP180;54562;47.620;18.786;2022-08-19T01:04:06;98025.20;;;24.70
67758;BMP180;54562;47.620;18.786;2022-08-19T01:07:15;98020.00;;;24.70
67758;BMP180;54562;47.620;18.786;2022-08-19T01:10:29;98016.00;;;24.62
67758;BMP180;54562;47.620;18.786;2022-08-19T01:13:42;98016.20;;;24.60
67758;BMP180;54562;47.620;18.786;2022-08-19T01:16:56;98012.60;;;24.60
67758;BMP180;54562;47.620;18.786;2022-08-19T01:20:08;98019.20;;;24.52
67758;BMP180;54562;47.620;18.786;2022-08-19T01:23:18;98012.00;;;24.50
67758;BMP180;54562;47.620;18.786;2022-08-19T01:26:28;98007.20;;;24.50
67758;BMP180;54562;47.620;18.786;2022-08-19T01:29:39;97995.60;;;24.50
67758;BMP180;54562;47.620;18.786;2022-08-19T01:32:49;97996.40;;;24.50
67758;BMP180;54562;47.620;18.786;2022-08-19T01:36:09;97995.80;;;24.50
67758;BMP180;54562;47.620;18.786;2022-08-19T01:39:20;97982.20;;;24.50
67758;BMP180;54562;47.620;18.786;2022-08-19T01:42:29;97976.20;;;24.50
67758;BMP180;54562;47.620;18.786;2022-08-19T01:45:38;97975.20;;;24.50
67758;BMP180;54562;47.620;18.786;2022-08-19T01:48:47;97977.60;;;24.50
67758;BMP180;54562;47.620;18.786;2022-08-19T01:51:56;97981.40;;;24.50
67758;BMP180;54562;47.620;18.786;2022-08-19T01:55:08;97969.80;;;24.50
67758;BMP180;54562;47.620;18.786;2022-08-19T01:58:21;97958.80;;;24.50
67758;BMP180;54562;47.620;18.786;2022-08-19T02:01:31;97953.00;;;24.50
67758;BMP180;54562;47.620;18.786;2022-08-19T02:04:40;97952.60;;;24.48
67758;BMP180;54562;47.620;18.786;2022-08-19T02:07:49;97964.20;;;24.42
67758;BMP180;54562;47.620;18.786;2022-08-19T02:10:58;97969.20;;;24.40
67758;BMP180;54562;47.620;18.786;2022-08-19T02:14:08;97966.20;;;24.40
67758;BMP180;54562;47.620;18.786;2022-08-19T02:17:16;97959.80;;;24.40
67758;BMP180;54562;47.620;18.786;2022-08-19T02:20:24;97958.80;;;24.40
67758;BMP180;54562;47.620;18.786;2022-08-19T02:23:32;97956.80;;;24.40
67758;BMP180;54562;47.620;18.786;2022-08-19T02:26:40;97943.80;;;24.40
67758;BMP180;54562;47.620;18.786;2022-08-19T02:29:51;97940.00;;;24.30
67758;BMP180;54562;47.620;18.786;2022-08-19T02:33:00;97946.60;;;24.30
67758;BMP180;54562;47.620;18.786;2022-08-19T02:36:10;97942.40;;;24.30
67758;BMP180;54562;47.620;18.786;2022-08-19T02:39:20;97947.00;;;24.20
67758;BMP180;54562;47.620;18.786;2022-08-19T02:42:28;97947.40;;;24.20
67758;BMP180;54562;47.620;18.786;2022-08-19T02:45:38;97951.20;;;24.20
67758;BMP180;54562;47.620;18.786;2022-08-19T02:48:48;97957.80;;;24.20
67758;BMP180;54562;47.620;18.786;2022-08-19T02:51:55;97961.40;;;24.20
67758;BMP180;54562;47.620;18.786;2022-08-19T02:55:04;97972.20;;;24.20
67758;BMP180;54562;47.620;18.786;2022-08-19T02:58:12;97975.20;;;24.20
67758;BMP180;54562;47.620;18.786;2022-08-19T03:01:26;97970.80;;;24.14
67758;BMP180;54562;47.620;18.786;2022-08-19T03:04:35;97970.20;;;24.10
67758;BMP180;54562;47.620;18.786;2022-08-19T03:07:44;97967.40;;;24.10
67758;BMP180;54562;47.620;18.786;2022-08-19T03:10:53;97973.40;;;24.10
67758;BMP180;54562;47.620;18.786;2022-08-19T03:14:02;97985.60;;;24.08
67758;BMP180;54562;47.620;18.786;2022-08-19T03:17:10;97989.60;;;24.00
67758;BMP180;54562;47.620;18.786;2022-08-19T03:20:19;97991.60;;;24.00
67758;BMP180;54562;47.620;18.786;2022-08-19T03:23:27;97991.20;;;23.98
67758;BMP180;54562;47.620;18.786;2022-08-19T03:26:37;97997.60;;;23.90
67758;BMP180;54562;47.620;18.786;2022-08-19T03:29:46;98000.20;;;23.90
67758;BMP180;54562;47.620;18.786;2022-08-19T03:32:54;97999.80;;;23.90
67758;BMP180;54562;47.620;18.786;2022-08-19T03:36:11;98003.00;;;23.80
67758;BMP180;54562;47.620;18.786;2022-08-19T03:39:19;97996.60;;;23.80
67758;BMP180;54562;47.620;18.786;2022-08-19T03:42:27;97992.60;;;23.74
67758;BMP180;54562;47.620;18.786;2022-08-19T03:46:05;97990.60;;;23.70
67758;BMP180;54562;47.620;18.786;2022-08-19T03:49:13;97996.80;;;23.70
67758;BMP180;54562;47.620;18.786;2022-08-19T03:52:24;98008.20;;;23.60
67758;BMP180;54562;47.620;18.786;2022-08-19T03:55:32;98016.40;;;23.60
67758;BMP180;54562;47.620;18.786;2022-08-19T03:58:40;98004.80;;;23.56
67758;BMP180;54562;47.620;18.786;2022-08-19T04:01:52;98005.60;;;23.50
67758;BMP180;54562;47.620;18.786;2022-08-19T04:05:00;98011.20;;;23.50
67758;BMP180;54562;47.620;18.786;2022-08-19T04:08:08;98019.40;;;23.50
67758;BMP180;54562;47.620;18.786;2022-08-19T04:11:22;98024.40;;;23.50
67758;BMP180;54562;47.620;18.786;2022-08-19T04:14:50;98027.80;;;23.50
67758;BMP180;54562;47.620;18.786;2022-08-19T04:17:58;98027.60;;;23.50
67758;BMP180;54562;47.620;18.786;2022-08-19T04:21:14;98031.40;;;23.50
67758;BMP180;54562;47.620;18.786;2022-08-19T04:24:23;98031.40;;;23.50
67758;BMP180;54562;47.620;18.786;2022-08-19T04:27:31;98030.00;;;23.50
67758;BMP180;54562;47.620;18.786;2022-08-19T04:30:47;98026.60;;;23.50
67758;BMP180;54562;47.620;18.786;2022-08-19T04:33:57;98020.20;;;23.50
67758;BMP180;54562;47.620;18.786;2022-08-19T04:37:08;98015.20;;;23.60
67758;BMP180;54562;47.620;18.786;2022-08-19T04:40:18;98019.00;;;23.60
67758;BMP180;54562;47.620;18.786;2022-08-19T04:43:46;98024.80;;;23.60
67758;BMP180;54562;47.620;18.786;2022-08-19T04:46:56;98027.60;;;23.60
67758;BMP180;54562;47.620;18.786;2022-08-19T04:50:06;98021.60;;;23.60
67758;BMP180;54562;47.620;18.786;2022-08-19T04:53:16;98027.00;;;23.56
67758;BMP180;54562;47.620;18.786;2022-08-19T04:56:24;98030.60;;;23.58
67758;BMP180;54562;47.620;18.786;2022-08-19T04:59:32;98026.60;;;23.60
67758;BMP180;54562;47.620;18.786;2022-08-19T05:02:41;98035.80;;;23.58
67758;BMP180;54562;47.620;18.786;2022-08-19T05:05:50;98033.40;;;23.60
67758;BMP180;54562;47.620;18.786;2022-08-19T05:08:58;98030.40;;;23.60
67758;BMP180;54562;47.620;18.786;2022-08-19T05:12:07;98022.00;;;23.60
67758;BMP180;54562;47.620;18.786;2022-08-19T05:15:15;98023.00;;;23.70
67758;BMP180;54562;47.620;18.786;2022-08-19T05:18:24;98021.00;;;23.80
67758;BMP180;54562;47.620;18.786;2022-08-19T05:21:50;98025.40;;;23.90
67758;BMP180;54562;47.620;18.786;2022-08-19T05:25:19;98025.20;;;24.00
67758;BMP180;54562;47.620;18.786;2022-08-19T05:28:28;98030.00;;;24.10
67758;BMP180;54562;47.620;18.786;2022-08-19T05:31:37;98035.80;;;24.20
67758;BMP180;54562;47.620;18.786;2022-08-19T05:34:47;98039.60;;;24.30
67758;BMP180;54562;47.620;18.786;2022-08-19T05:37:55;98035.80;;;24.40
67758;BMP180;54562;47.620;18.786;2022-08-19T05:41:10;98033.80;;;24.56
67758;BMP180;54562;47.620;18.786;2022-08-19T05:44:19;98036.20;;;24.70
67758;BMP180;54562;47.620;18.786;2022-08-19T05:47:28;98038.80;;;24.78
67758;BMP180;54562;47.620;18.786;2022-08-19T05:50:38;98032.20;;;24.84
67758;BMP180;54562;47.620;18.786;2022-08-19T05:53:47;98036.80;;;24.90
67758;BMP180;54562;47.620;18.786;2022-08-19T05:56:56;98022.80;;;25.00
67758;BMP180;54562;47.620;18.786;2022-08-19T06:00:05;98028.60;;;25.02
67758;BMP180;54562;47.620;18.786;2022-08-19T06:03:16;98033.60;;;25.10
67758;BMP180;54562;47.620;18.786;2022-08-19T06:06:24;98029.80;;;25.20
67758;BMP180;54562;47.620;18.786;2022-08-19T06:09:32;98031.80;;;25.20
67758;BMP180;54562;47.620;18.786;2022-08-19T06:12:42;98031.80;;;25.30
67758;BMP180;54562;47.620;18.786;2022-08-19T06:15:50;98028.60;;;25.40
67758;BMP180;54562;47.620;18.786;2022-08-19T06:19:01;98036.20;;;25.50
67758;BMP180;54562;47.620;18.786;2022-08-19T06:22:10;98037.00;;;25.60
67758;BMP180;54562;47.620;18.786;2022-08-19T06:25:20;98038.20;;;25.74
67758;BMP180;54562;47.620;18.786;2022-08-19T06:28:33;98041.40;;;25.88
67758;BMP180;54562;47.620;18.786;2022-08-19T06:31:45;98041.20;;;26.00
67758;BMP180;54562;47.620;18.786;2022-08-19T06:34:55;98036.60;;;26.10
67758;BMP180;54562;47.620;18.786;2022-08-19T06:38:03;98033.80;;;26.20
67758;BMP180;54562;47.620;18.786;2022-08-19T06:41:11;98030.40;;;26.30
67758;BMP180;54562;47.620;18.786;2022-08-19T06:44:21;98029.80;;;26.36
67758;BMP180;54562;47.620;18.786;2022-08-19T06:47:31;98040.20;;;26.40
67758;BMP180;54562;47.620;18.786;2022-08-19T06:50:40;98046.00;;;26.50
67758;BMP180;54562;47.620;18.786;2022-08-19T06:53:49;98053.60;;;26.56
67758;BMP180;54562;47.620;18.786;2022-08-19T06:57:00;98054.20;;;26.60
67758;BMP180;54562;47.620;18.786;2022-08-19T07:00:11;98073.60;;;26.70
67758;BMP180;54562;47.620;18.786;2022-08-19T07:03:20;98076.20;;;26.78
67758;BMP180;54562;47.620;18.786;2022-08-19T07:06:28;98070.60;;;26.84
67758;BMP180;54562;47.620;18.786;2022-08-19T07:09:52;98064.80;;;26.94
67758;BMP180;54562;47.620;18.786;2022-08-19T07:13:06;98070.00;;;27.10
67758;BMP180;54562;47.620;18.786;2022-08-19T07:16:18;98068.20;;;27.18
67758;BMP180;54562;47.620;18.786;2022-08-19T07:19:37;98072.80;;;27.30
67758;BMP180;54562;47.620;18.786;2022-08-19T07:22:46;98068.60;;;27.50
67758;BMP180;54562;47.620;18.786;2022-08-19T07:25:54;98068.80;;;27.70
67758;BMP180;54562;47.620;18.786;2022-08-19T07:29:01;98072.80;;;27.90
67758;BMP180;54562;47.620;18.786;2022-08-19T07:32:12;98072.60;;;28.00
67758;BMP180;54562;47.620;18.786;2022-08-19T07:35:20;98073.40;;;28.10
67758;BMP180;54562;47.620;18.786;2022-08-19T07:38:28;98079.20;;;28.30
67758;BMP180;54562;47.620;18.786;2022-08-19T07:41:38;98078.20;;;28.50
67758;BMP180;54562;47.620;18.786;2022-08-19T07:44:46;98074.00;;;28.60
67758;BMP180;54562;47.620;18.786;2022-08-19T07:47:56;98075.00;;;28.80
67758;BMP180;54562;47.620;18.786;2022-08-19T07:51:07;98076.20;;;28.90
67758;BMP180;54562;47.620;18.786;2022-08-19T07:54:22;98075.20;;;29.10
67758;BMP180;54562;47.620;18.786;2022-08-19T07:57:30;98076.00;;;29.24
67758;BMP180;54562;47.620;18.786;2022-08-19T08:00:39;98076.00;;;29.40
67758;BMP180;54562;47.620;18.786;2022-08-19T08:03:49;98071.20;;;29.50
67758;BMP180;54562;47.620;18.786;2022-08-19T08:07:15;98073.80;;;29.52
67758;BMP180;54562;47.620;18.786;2022-08-19T08:10:41;98073.80;;;29.70
67758;BMP180;54562;47.620;18.786;2022-08-19T08:13:58;98073.40;;;29.70
67758;BMP180;54562;47.620;18.786;2022-08-19T08:17:11;98075.00;;;29.90
67758;BMP180;54562;47.620;18.786;2022-08-19T08:20:36;98068.00;;;30.00
67758;BMP180;54562;47.620;18.786;2022-08-19T08:23:44;98072.60;;;30.10
67758;BMP180;54562;47.620;18.786;2022-08-19T08:26:52;98067.80;;;30.30
67758;BMP180;54562;47.620;18.786;2022-08-19T08:30:04;98062.60;;;30.50
67758;BMP180;54562;47.620;18.786;2022-08-19T08:33:19;98062.40;;;30.68
67758;BMP180;54562;47.620;18.786;2022-08-19T08:36:42;98058.60;;;30.80
67758;BMP180;54562;47.620;18.786;2022-08-19T08:39:51;98051.00;;;30.90
67758;BMP180;54562;47.620;18.786;2022-08-19T08:43:08;98047.80;;;30.98
67758;BMP180;54562;47.620;18.786;2022-08-19T08:46:23;98056.40;;;31.00
67758;BMP180;54562;47.620;18.786;2022-08-19T08:49:45;98064.60;;;31.10
67758;BMP180;54562;47.620;18.786;2022-08-19T08:52:58;98063.00;;;31.18
67758;BMP180;54562;47.620;18.786;2022-08-19T08:56:10;98063.80;;;31.30
67758;BMP180;54562;47.620;18.786;2022-08-19T08:59:28;98064.40;;;31.42
67758;BMP180;54562;47.620;18.786;2022-08-19T09:02:39;98063.80;;;31.60
67758;BMP180;54562;47.620;18.786;2022-08-19T09:06:00;98066.00;;;31.70
67758;BMP180;54562;47.620;18.786;2022-08-19T09:09:19;98063.80;;;31.90
67758;BMP180;54562;47.620;18.786;2022-08-19T09:12:47;98055.00;;;32.02
67758;BMP180;54562;47.620;18.786;2022-08-19T09:16:05;98051.60;;;32.20
67758;BMP180;54562;47.620;18.786;2022-08-19T09:19:13;98047.80;;;32.28
67758;BMP180;54562;47.620;18.786;2022-08-19T09:22:28;98041.40;;;32.30
67758;BMP180;54562;47.620;18.786;2022-08-19T09:25:37;98034.00;;;32.40
67758;BMP180;54562;47.620;18.786;2022-08-19T09:28:49;98028.80;;;32.50
67758;BMP180;54562;47.620;18.786;2022-08-19T09:31:59;98026.40;;;32.60
67758;BMP180;54562;47.620;18.786;2022-08-19T09:35:08;98026.80;;;32.64
67758;BMP180;54562;47.620;18.786;2022-08-19T09:38:17;98038.80;;;32.70
67758;BMP180;54562;47.620;18.786;2022-08-19T09:41:27;98036.60;;;32.78
67758;BMP180;54562;47.620;18.786;2022-08-19T09:44:35;98035.20;;;32.80
67758;BMP180;54562;47.620;18.786;2022-08-19T09:47:43;98036.80;;;32.80
67758;BMP180;54562;47.620;18.786;2022-08-19T09:50:52;98033.80;;;32.80
67758;BMP180;54562;47.620;18.786;2022-08-19T09:54:04;98020.20;;;32.80
67758;BMP180;54562;47.620;18.786;2022-08-19T09:57:18;98019.60;;;32.80
67758;BMP180;54562;47.620;18.786;2022-08-19T10:00:26;98014.60;;;32.90
67758;BMP180;54562;47.620;18.786;2022-08-19T10:03:36;98023.00;;;33.00
67758;BMP180;54562;47.620;18.786;2022-08-19T10:06:44;98021.60;;;33.20
67758;BMP180;54562;47.620;18.786;2022-08-19T10:09:59;98020.40;;;33.20
67758;BMP180;54562;47.620;18.786;2022-08-19T10:13:07;98013.40;;;33.30
67758;BMP180;54562;47.620;18.786;2022-08-19T10:16:19;98012.40;;;33.40
67758;BMP180;54562;47.620;18.786;2022-08-19T10:19:35;98021.00;;;33.50
67758;BMP180;54562;47.620;18.786;2022-08-19T10:22:44;98022.20;;;33.70
67758;BMP180;54562;47.620;18.786;2022-08-19T10:26:00;98017.00;;;33.82
67758;BMP180;54562;47.620;18.786;2022-08-19T10:29:10;98008.00;;;34.00
67758;BMP180;54562;47.620;18.786;2022-08-19T10:32:36;98014.60;;;34.28
67758;BMP180;54562;47.620;18.786;2022-08-19T10:36:00;98019.40;;;34.40
67758;BMP180;54562;47.620;18.786;2022-08-19T10:39:11;98027.20;;;34.68
67758;BMP180;54562;47.620;18.786;2022-08-19T10:42:20;98021.80;;;34.80
67758;BMP180;54562;47.620;18.786;2022-08-19T10:45:26;98012.20;;;34.90
67758;BMP180;54562;47.620;18.786;2022-08-19T10:48:35;98018.00;;;35.00
67758;BMP180;54562;47.620;18.786;2022-08-19T10:51:45;98016.60;;;35.10
67758;BMP180;54562;47.620;18.786;2022-08-19T10:55:16;98013.20;;;35.30
67758;BMP180;54562;47.620;18.786;2022-08-19T10:58:42;98021.80;;;35.30
67758;BMP180;54562;47.620;18.786;2022-08-19T11:01:52;98023.40;;;35.40
67758;BMP180;54562;47.620;18.786;2022-08-19T11:05:03;98015.60;;;35.50
67758;BMP180;54562;47.620;18.786;2022-08-19T11:08:19;98014.80;;;35.50
67758;BMP180;54562;47.620;18.786;2022-08-19T11:11:29;98016.00;;;35.70
67758;BMP180;54562;47.620;18.786;2022-08-19T11:14:44;98018.40;;;35.94
67758;BMP180;54562;47.620;18.786;2022-08-19T11:17:52;98018.40;;;36.08
67758;BMP180;54562;47.620;18.786;2022-08-19T11:21:12;98026.80;;;36.18
67758;BMP180;54562;47.620;18.786;2022-08-19T11:24:22;98028.40;;;36.20
67758;BMP180;54562;47.620;18.786;2022-08-19T11:27:31;98024.40;;;36.50
67758;BMP180;54562;47.620;18.786;2022-08-19T11:30:41;98027.60;;;36.80
67758;BMP180;54562;47.620;18.786;2022-08-19T11:33:49;98025.80;;;37.12
67758;BMP180;54562;47.620;18.786;2022-08-19T11:37:03;98020.60;;;37.20
67758;BMP180;54562;47.620;18.786;2022-08-19T11:40:14;98032.80;;;37.28
67758;BMP180;54562;47.620;18.786;2022-08-19T11:43:22;98023.60;;;37.30
67758;BMP180;54562;47.620;18.786;2022-08-19T11:46:31;98029.00;;;37.30
67758;BMP180;54562;47.620;18.786;2022-08-19T11:49:39;98022.60;;;37.28
67758;BMP180;54562;47.620;18.786;2022-08-19T11:52:48;98030.80;;;37.20
67758;BMP180;54562;47.620;18.786;2022-08-19T11:55:57;98010.40;;;36.70
67758;BMP180;54562;47.620;18.786;2022-08-19T11:59:05;98015.40;;;36.44
67758;BMP180;54562;47.620;18.786;2022-08-19T12:02:20;98007.80;;;36.20
67758;BMP180;54562;47.620;18.786;2022-08-19T12:05:26;98002.00;;;36.10
67758;BMP180;54562;47.620;18.786;2022-08-19T12:08:39;98002.80;;;35.98
67758;BMP180;54562;47.620;18.786;2022-08-19T12:11:47;98005.00;;;35.80
67758;BMP180;54562;47.620;18.786;2022-08-19T12:14:57;98003.20;;;35.82
67758;BMP180;54562;47.620;18.786;2022-08-19T12:18:07;98011.60;;;36.22
67758;BMP180;54562;47.620;18.786;2022-08-19T12:21:17;98005.60;;;36.58
67758;BMP180;54562;47.620;18.786;2022-08-19T12:24:28;98009.80;;;36.60
67758;BMP180;54562;47.620;18.786;2022-08-19T12:27:40;98011.60;;;36.40
67758;BMP180;54562;47.620;18.786;2022-08-19T12:30:59;98012.00;;;36.20
67758;BMP180;54562;47.620;18.786;2022-08-19T12:34:14;98009.40;;;36.00
67758;BMP180;54562;47.620;18.786;2022-08-19T12:37:22;98007.80;;;36.10
67758;BMP180;54562;47.620;18.786;2022-08-19T12:40:30;98000.80;;;36.18
67758;BMP180;54562;47.620;18.786;2022-08-19T12:43:40;97997.40;;;36.20
67758;BMP180;54562;47.620;18.786;2022-08-19T12:46:49;97994.20;;;36.38
67758;BMP180;54562;47.620;18.786;2022-08-19T12:49:59;98003.00;;;36.52
67758;BMP180;54562;47.620;18.786;2022-08-19T12:53:12;97999.00;;;36.70
67758;BMP180;54562;47.620;18.786;2022-08-19T12:56:19;97992.00;;;36.80
67758;BMP180;54562;47.620;18.786;2022-08-19T12:59:27;97988.60;;;37.00
67758;BMP180;54562;47.620;18.786;2022-08-19T13:02:35;97990.00;;;37.10
67758;BMP180;54562;47.620;18.786;2022-08-19T13:05:44;97989.60;;;37.10
67758;BMP180;54562;47.620;18.786;2022-08-19T13:08:53;97984.60;;;37.18
67758;BMP180;54562;47.620;18.786;2022-08-19T13:12:06;97983.80;;;36.98
67758;BMP180;54562;47.620;18.786;2022-08-19T13:15:22;97981.40;;;36.60
67758;BMP180;54562;47.620;18.786;2022-08-19T13:18:30;97982.40;;;36.30
67758;BMP180;54562;47.620;18.786;2022-08-19T13:21:38;97977.80;;;36.06
67758;BMP180;54562;47.620;18.786;2022-08-19T13:24:48;97979.80;;;35.82
67758;BMP180;54562;47.620;18.786;2022-08-19T13:27:54;97989.40;;;35.60
67758;BMP180;54562;47.620;18.786;2022-08-19T13:31:02;98006.00;;;35.40
67758;BMP180;54562;47.620;18.786;2022-08-19T13:34:34;98035.60;;;35.00
67758;BMP180;54562;47.620;18.786;2022-08-19T13:37:43;98054.40;;;34.40
67758;BMP180;54562;47.620;18.786;2022-08-19T13:40:53;98071.60;;;33.72
67758;BMP180;54562;47.620;18.786;2022-08-19T13:44:02;98065.60;;;33.26
67758;BMP180;54562;47.620;18.786;2022-08-19T13:47:09;98048.20;;;32.64
67758;BMP180;54562;47.620;18.786;2022-08-19T13:50:24;98038.80;;;32.10
67758;BMP180;54562;47.620;18.786;2022-08-19T13:53:34;98046.20;;;31.60
67758;BMP180;54562;47.620;18.786;2022-08-19T13:56:45;98061.20;;;31.30
67758;BMP180;54562;47.620;18.786;2022-08-19T13:59:54;98064.00;;;31.20
67758;BMP180;54562;47.620;18.786;2022-08-19T14:03:03;98058.60;;;31.22
67758;BMP180;54562;47.620;18.786;2022-08-19T14:06:14;98046.60;;;31.30
67758;BMP180;54562;47.620;18.786;2022-08-19T14:09:23;98047.20;;;31.40
67758;BMP180;54562;47.620;18.786;2022-08-19T14:12:34;98053.40;;;31.40
67758;BMP180;54562;47.620;18.786;2022-08-19T14:15:43;98046.00;;;31.56
67758;BMP180;54562;47.620;18.786;2022-08-19T14:18:51;98051.00;;;31.80
67758;BMP180;54562;47.620;18.786;2022-08-19T14:22:00;98058.20;;;31.76
67758;BMP180;54562;47.620;18.786;2022-08-19T14:25:12;98057.80;;;31.64
67758;BMP180;54562;47.620;18.786;2022-08-19T14:28:20;98057.60;;;31.58
67758;BMP180;54562;47.620;18.786;2022-08-19T14:31:33;98056.40;;;31.50
67758;BMP180;54562;47.620;18.786;2022-08-19T14:34:41;98062.40;;;31.50
67758;BMP180;54562;47.620;18.786;2022-08-19T14:37:52;98054.00;;;31.30
67758;BMP180;54562;47.620;18.786;2022-08-19T14:41:13;98048.80;;;31.30
67758;BMP180;54562;47.620;18.786;2022-08-19T14:44:23;98047.20;;;31.30
67758;BMP180;54562;47.620;18.786;2022-08-19T14:47:31;98036.20;;;31.30
67758;BMP180;54562;47.620;18.786;2022-08-19T14:50:39;98034.80;;;31.20
67758;BMP180;54562;47.620;18.786;2022-08-19T14:53:47;98031.20;;;31.10
67758;BMP180;54562;47.620;18.786;2022-08-19T14:56:56;98036.00;;;31.20
67758;BMP180;54562;47.620;18.786;2022-08-19T15:00:06;98035.40;;;31.30
67758;BMP180;54562;47.620;18.786;2022-08-19T15:03:18;98039.00;;;31.24
67758;BMP180;54562;47.620;18.786;2022-08-19T15:06:27;98037.40;;;31.20
67758;BMP180;54562;47.620;18.786;2022-08-19T15:09:35;98049.20;;;31.10
67758;BMP180;54562;47.620;18.786;2022-08-19T15:12:44;98053.00;;;31.00
67758;BMP180;54562;47.620;18.786;2022-08-19T15:15:57;98061.20;;;30.90
67758;BMP180;54562;47.620;18.786;2022-08-19T15:19:06;98065.80;;;30.80
67758;BMP180;54562;47.620;18.786;2022-08-19T15:22:14;98066.00;;;30.70
67758;BMP180;54562;47.620;18.786;2022-08-19T15:25:22;98081.60;;;30.60
67758;BMP180;54562;47.620;18.786;2022-08-19T15:28:30;98080.20;;;30.50
67758;BMP180;54562;47.620;18.786;2022-08-19T15:31:39;98084.40;;;30.40
67758;BMP180;54562;47.620;18.786;2022-08-19T15:34:48;98092.00;;;30.30
67758;BMP180;54562;47.620;18.786;2022-08-19T15:37:57;98101.60;;;30.20
67758;BMP180;54562;47.620;18.786;2022-08-19T15:41:05;98111.20;;;30.10
67758;BMP180;54562;47.620;18.786;2022-08-19T15:44:27;98108.60;;;30.04
67758;BMP180;54562;47.620;18.786;2022-08-19T15:47:35;98073.60;;;30.00
67758;BMP180;54562;47.620;18.786;2022-08-19T15:50:43;98058.80;;;29.90
67758;BMP180;54562;47.620;18.786;2022-08-19T15:53:52;98052.80;;;29.80
67758;BMP180;54562;47.620;18.786;2022-08-19T15:57:00;98027.60;;;29.80
67758;BMP180;54562;47.620;18.786;2022-08-19T16:00:26;98036.20;;;29.60
67758;BMP180;54562;47.620;18.786;2022-08-19T16:04:00;98028.80;;;29.50
67758;BMP180;54562;47.620;18.786;2022-08-19T16:07:25;98010.40;;;29.44
67758;BMP180;54562;47.620;18.786;2022-08-19T16:10:34;98007.20;;;29.30
67758;BMP180;54562;47.620;18.786;2022-08-19T16:13:41;97995.20;;;29.20
67758;BMP180;54562;47.620;18.786;2022-08-19T16:16:49;97986.40;;;29.06
67758;BMP180;54562;47.620;18.786;2022-08-19T16:19:59;97975.60;;;28.86
67758;BMP180;54562;47.620;18.786;2022-08-19T16:23:07;97972.60;;;28.70
67758;BMP180;54562;47.620;18.786;2022-08-19T16:26:17;97979.60;;;28.54
67758;BMP180;54562;47.620;18.786;2022-08-19T16:29:28;97986.80;;;28.40
67758;BMP180;54562;47.620;18.786;2022-08-19T16:32:46;98001.40;;;28.30
67758;BMP180;54562;47.620;18.786;2022-08-19T16:35:54;98017.60;;;28.20
67758;BMP180;54562;47.620;18.786;2022-08-19T16:39:15;98030.40;;;28.20
67758;BMP180;54562;47.620;18.786;2022-08-19T16:42:23;98054.00;;;28.10
67758;BMP180;54562;47.620;18.786;2022-08-19T16:45:31;98067.00;;;28.10
67758;BMP180;54562;47.620;18.786;2022-08-19T16:48:40;98084.00;;;28.10
67758;BMP180;54562;47.620;18.786;2022-08-19T16:51:51;98104.00;;;28.06
67758;BMP180;54562;47.620;18.786;2022-08-19T16:54:59;98119.80;;;28.00
67758;BMP180;54562;47.620;18.786;2022-08-19T16:58:07;98132.00;;;27.90
67758;BMP180;54562;47.620;18.786;2022-08-19T17:01:16;98148.00;;;27.90
67758;BMP180;54562;47.620;18.786;2022-08-19T17:04:24;98172.20;;;27.80
67758;BMP180;54562;47.620;18.786;2022-08-19T17:07:32;98165.00;;;27.80
67758;BMP180;54562;47.620;18.786;2022-08-19T17:10:41;98152.20;;;27.70
67758;BMP180;54562;47.620;18.786;2022-08-19T17:14:10;98174.20;;;27.68
67758;BMP180;54562;47.620;18.786;2022-08-19T17:17:18;98201.80;;;27.60
67758;BMP180;54562;47.620;18.786;2022-08-19T17:20:32;98226.00;;;27.60
67758;BMP180;54562;47.620;18.786;2022-08-19T17:23:40;98216.40;;;27.40
67758;BMP180;54562;47.620;18.786;2022-08-19T17:26:49;98217.60;;;27.06
67758;BMP180;54562;47.620;18.786;2022-08-19T17:29:57;98146.00;;;26.50
67758;BMP180;54562;47.620;18.786;2022-08-19T17:33:07;98044.20;;;25.80
67758;BMP180;54562;47.620;18.786;2022-08-19T17:36:16;98006.60;;;25.04
67758;BMP180;54562;47.620;18.786;2022-08-19T17:39:24;97962.80;;;24.60
67758;BMP180;54562;47.620;18.786;2022-08-19T17:42:32;97959.60;;;24.10
67758;BMP180;54562;47.620;18.786;2022-08-19T17:45:42;97959.00;;;23.74
67758;BMP180;54562;47.620;18.786;2022-08-19T17:48:54;97929.20;;;23.46
67758;BMP180;54562;47.620;18.786;2022-08-19T17:52:03;97918.20;;;23.20
67758;BMP180;54562;47.620;18.786;2022-08-19T17:55:16;97929.20;;;22.92
67758;BMP180;54562;47.620;18.786;2022-08-19T17:58:24;97939.60;;;22.80
67758;BMP180;54562;47.620;18.786;2022-08-19T18:01:33;97945.40;;;22.70
67758;BMP180;54562;47.620;18.786;2022-08-19T18:04:59;97947.80;;;22.70